sensor_id;sensor_type;location;lat;lon;timestamp;temperature;humidity
19952;DHT22;10137;49.406;19.484;2023-09-18T00:00:05;13.20;99.90
19952;DHT22;10137;49.406;19.484;2023-09-18T00:02:37;13.20;99.90
19952;DHT22;10137;49.406;19.484;2023-09-18T00:05:06;13.20;99.90
19952;DHT22;10137;49.406;19.484;2023-09-18T00:07:34;13.30;99.90
19952;DHT22;10137;49.406;19.484;2023-09-18T00:10:04;13.30;99.90
19952;DHT22;10137;49.406;19.484;2023-09-18T00:12:33;13.20;99.90
19952;DHT22;10137;49.406;19.484;2023-09-18T00:15:01;13.10;99.90
19952;DHT22;10137;49.406;19.484;2023-09-18T00:17:30;13.20;99.90
19952;DHT22;10137;49.406;19.484;2023-09-18T00:19:58;13.00;99.90
19952;DHT22;10137;49.406;19.484;2023-09-18T00:22:27;13.00;99.90
19952;DHT22;10137;49.406;19.484;2023-09-18T00:24:55;13.10;99.90
19952;DHT22;10137;49.406;19.484;2023-09-18T00:27:24;13.00;99.90
19952;DHT22;10137;49.406;19.484;2023-09-18T00:29:54;13.10;99.90
19952;DHT22;10137;49.406;19.484;2023-09-18T00:32:22;13.00;99.90
19952;DHT22;10137;49.406;19.484;2023-09-18T00:34:52;13.10;99.90
19952;DHT22;10137;49.406;19.484;2023-09-18T00:37:20;12.90;99.90
19952;DHT22;10137;49.406;19.484;2023-09-18T00:39:50;13.00;99.90
19952;DHT22;10137;49.406;19.484;2023-09-18T00:42:18;12.90;99.90
19952;DHT22;10137;49.406;19.484;2023-09-18T00:44:50;12.90;99.90
19952;DHT22;10137;49.406;19.484;2023-09-18T00:47:18;12.90;99.90
19952;DHT22;10137;49.406;19.484;2023-09-18T00:49:48;12.90;99.90
19952;DHT22;10137;49.406;19.484;2023-09-18T00:52:20;12.90;99.90
19952;DHT22;10137;49.406;19.484;2023-09-18T00:54:49;12.90;99.90
19952;DHT22;10137;49.406;19.484;2023-09-18T00:57:19;12.80;99.90
19952;DHT22;10137;49.406;19.484;2023-09-18T00:59:47;12.70;99.90
19952;DHT22;10137;49.406;19.484;2023-09-18T01:02:17;12.70;99.90
19952;DHT22;10137;49.406;19.484;2023-09-18T01:04:48;12.80;99.90
19952;DHT22;10137;49.406;19.484;2023-09-18T01:07:17;12.70;99.90
19952;DHT22;10137;49.406;19.484;2023-09-18T01:09:45;12.70;99.90
19952;DHT22;10137;49.406;19.484;2023-09-18T01:12:18;12.70;99.90
19952;DHT22;10137;49.406;19.484;2023-09-18T01:14:57;12.70;99.90
19952;DHT22;10137;49.406;19.484;2023-09-18T01:17:30;12.70;99.90
19952;DHT22;10137;49.406;19.484;2023-09-18T01:19:58;12.70;99.90
19952;DHT22;10137;49.406;19.484;2023-09-18T01:22:30;12.60;99.90
19952;DHT22;10137;49.406;19.484;2023-09-18T01:24:58;12.60;99.90
19952;DHT22;10137;49.406;19.484;2023-09-18T01:27:26;12.50;99.90
19952;DHT22;10137;49.406;19.484;2023-09-18T01:29:54;12.60;99.90
19952;DHT22;10137;49.406;19.484;2023-09-18T01:32:25;12.60;99.90
19952;DHT22;10137;49.406;19.484;2023-09-18T01:34:56;12.60;99.90
19952;DHT22;10137;49.406;19.484;2023-09-18T01:37:26;12.60;99.90
19952;DHT22;10137;49.406;19.484;2023-09-18T01:39:59;12.50;99.90
19952;DHT22;10137;49.406;19.484;2023-09-18T01:42:27;12.50;99.90
19952;DHT22;10137;49.406;19.484;2023-09-18T01:44:56;12.40;99.90
19952;DHT22;10137;49.406;19.484;2023-09-18T01:47:24;12.40;99.90
19952;DHT22;10137;49.406;19.484;2023-09-18T01:49:54;12.40;99.90
19952;DHT22;10137;49.406;19.484;2023-09-18T01:52:22;12.40;99.90
19952;DHT22;10137;49.406;19.484;2023-09-18T01:54:50;12.30;99.90
19952;DHT22;10137;49.406;19.484;2023-09-18T01:57:20;12.30;99.90
19952;DHT22;10137;49.406;19.484;2023-09-18T01:59:51;12.30;99.90
19952;DHT22;10137;49.406;19.484;2023-09-18T02:02:19;12.30;99.90
19952;DHT22;10137;49.406;19.484;2023-09-18T02:04:47;12.20;99.90
19952;DHT22;10137;49.406;19.484;2023-09-18T02:07:19;12.30;99.90
19952;DHT22;10137;49.406;19.484;2023-09-18T02:09:50;12.20;99.90
19952;DHT22;10137;49.406;19.484;2023-09-18T02:12:21;12.20;99.90
19952;DHT22;10137;49.406;19.484;2023-09-18T02:14:50;12.10;99.90
19952;DHT22;10137;49.406;19.484;2023-09-18T02:17:18;12.00;99.90
19952;DHT22;10137;49.406;19.484;2023-09-18T02:19:47;12.00;99.90
19952;DHT22;10137;49.406;19.484;2023-09-18T02:22:15;12.00;99.90
19952;DHT22;10137;49.406;19.484;2023-09-18T02:24:43;12.00;99.90
19952;DHT22;10137;49.406;19.484;2023-09-18T02:27:11;12.00;99.90
19952;DHT22;10137;49.406;19.484;2023-09-18T02:29:40;12.00;99.90
19952;DHT22;10137;49.406;19.484;2023-09-18T02:32:09;11.90;99.90
19952;DHT22;10137;49.406;19.484;2023-09-18T02:34:40;11.90;99.90
19952;DHT22;10137;49.406;19.484;2023-09-18T02:37:08;12.00;99.90
19952;DHT22;10137;49.406;19.484;2023-09-18T02:39:35;12.10;99.90
19952;DHT22;10137;49.406;19.484;2023-09-18T02:42:04;12.00;99.90
19952;DHT22;10137;49.406;19.484;2023-09-18T02:44:32;12.00;99.90
19952;DHT22;10137;49.406;19.484;2023-09-18T02:47:06;12.00;99.90
19952;DHT22;10137;49.406;19.484;2023-09-18T02:49:36;11.90;99.90
19952;DHT22;10137;49.406;19.484;2023-09-18T02:52:05;11.90;99.90
19952;DHT22;10137;49.406;19.484;2023-09-18T02:54:33;12.00;99.90
19952;DHT22;10137;49.406;19.484;2023-09-18T02:57:02;12.00;99.90
19952;DHT22;10137;49.406;19.484;2023-09-18T02:59:32;11.90;99.90
19952;DHT22;10137;49.406;19.484;2023-09-18T03:02:02;11.90;99.90
19952;DHT22;10137;49.406;19.484;2023-09-18T03:04:31;11.90;99.90
19952;DHT22;10137;49.406;19.484;2023-09-18T03:06:59;11.90;99.90
19952;DHT22;10137;49.406;19.484;2023-09-18T03:09:27;11.80;99.90
19952;DHT22;10137;49.406;19.484;2023-09-18T03:11:55;11.90;99.90
19952;DHT22;10137;49.406;19.484;2023-09-18T03:14:24;11.90;99.90
19952;DHT22;10137;49.406;19.484;2023-09-18T03:16:55;11.70;99.90
19952;DHT22;10137;49.406;19.484;2023-09-18T03:19:28;11.70;99.90
19952;DHT22;10137;49.406;19.484;2023-09-18T03:21:57;11.80;99.90
19952;DHT22;10137;49.406;19.484;2023-09-18T03:24:25;11.80;99.90
19952;DHT22;10137;49.406;19.484;2023-09-18T03:26:53;11.80;99.90
19952;DHT22;10137;49.406;19.484;2023-09-18T03:29:24;11.70;99.90
19952;DHT22;10137;49.406;19.484;2023-09-18T03:31:52;11.80;99.90
19952;DHT22;10137;49.406;19.484;2023-09-18T03:34:26;11.80;99.90
19952;DHT22;10137;49.406;19.484;2023-09-18T03:36:56;11.70;99.90
19952;DHT22;10137;49.406;19.484;2023-09-18T03:39:24;11.80;99.90
19952;DHT22;10137;49.406;19.484;2023-09-18T03:41:55;11.70;99.90
19952;DHT22;10137;49.406;19.484;2023-09-18T03:44:23;11.70;99.90
19952;DHT22;10137;49.406;19.484;2023-09-18T03:46:53;11.70;99.90
19952;DHT22;10137;49.406;19.484;2023-09-18T03:49:28;11.70;99.90
19952;DHT22;10137;49.406;19.484;2023-09-18T03:51:56;11.80;99.90
19952;DHT22;10137;49.406;19.484;2023-09-18T03:54:24;11.80;99.90
19952;DHT22;10137;49.406;19.484;2023-09-18T03:56:56;11.80;99.90
19952;DHT22;10137;49.406;19.484;2023-09-18T03:59:24;11.90;99.90
19952;DHT22;10137;49.406;19.484;2023-09-18T04:01:54;11.90;99.90
19952;DHT22;10137;49.406;19.484;2023-09-18T04:04:23;11.90;99.90
19952;DHT22;10137;49.406;19.484;2023-09-18T04:06:59;11.80;99.90
19952;DHT22;10137;49.406;19.484;2023-09-18T04:09:27;11.90;99.90
19952;DHT22;10137;49.406;19.484;2023-09-18T04:11:55;11.90;99.90
19952;DHT22;10137;49.406;19.484;2023-09-18T04:14:24;11.90;99.90
19952;DHT22;10137;49.406;19.484;2023-09-18T04:16:54;11.80;99.90
19952;DHT22;10137;49.406;19.484;2023-09-18T04:19:27;11.70;99.90
19952;DHT22;10137;49.406;19.484;2023-09-18T04:21:57;11.70;99.90
19952;DHT22;10137;49.406;19.484;2023-09-18T04:24:26;11.70;99.90
19952;DHT22;10137;49.406;19.484;2023-09-18T04:26:54;11.80;99.90
19952;DHT22;10137;49.406;19.484;2023-09-18T04:29:25;11.70;99.90
19952;DHT22;10137;49.406;19.484;2023-09-18T04:31:53;11.80;99.90
19952;DHT22;10137;49.406;19.484;2023-09-18T04:34:20;11.70;99.90
19952;DHT22;10137;49.406;19.484;2023-09-18T04:36:48;11.70;99.90
19952;DHT22;10137;49.406;19.484;2023-09-18T04:39:18;11.70;99.90
19952;DHT22;10137;49.406;19.484;2023-09-18T04:41:46;11.70;99.90
19952;DHT22;10137;49.406;19.484;2023-09-18T04:44:16;11.50;99.90
19952;DHT22;10137;49.406;19.484;2023-09-18T04:46:44;11.40;99.90
19952;DHT22;10137;49.406;19.484;2023-09-18T04:49:12;11.40;99.90
19952;DHT22;10137;49.406;19.484;2023-09-18T04:51:41;11.40;99.90
19952;DHT22;10137;49.406;19.484;2023-09-18T04:54:10;11.50;99.90
19952;DHT22;10137;49.406;19.484;2023-09-18T04:56:40;11.40;99.90
19952;DHT22;10137;49.406;19.484;2023-09-18T04:59:09;11.40;99.90
19952;DHT22;10137;49.406;19.484;2023-09-18T05:01:35;11.50;99.90
19952;DHT22;10137;49.406;19.484;2023-09-18T05:04:03;11.60;99.90
19952;DHT22;10137;49.406;19.484;2023-09-18T05:06:31;11.60;99.90
19952;DHT22;10137;49.406;19.484;2023-09-18T05:08:59;11.70;99.90
19952;DHT22;10137;49.406;19.484;2023-09-18T05:11:28;11.70;99.90
19952;DHT22;10137;49.406;19.484;2023-09-18T05:14:01;11.70;99.90
19952;DHT22;10137;49.406;19.484;2023-09-18T05:16:29;11.70;99.90
19952;DHT22;10137;49.406;19.484;2023-09-18T05:18:57;11.70;99.90
19952;DHT22;10137;49.406;19.484;2023-09-18T05:21:26;11.70;99.90
19952;DHT22;10137;49.406;19.484;2023-09-18T05:23:54;11.80;99.90
19952;DHT22;10137;49.406;19.484;2023-09-18T05:26:24;11.90;99.90
19952;DHT22;10137;49.406;19.484;2023-09-18T05:28:57;12.00;99.90
19952;DHT22;10137;49.406;19.484;2023-09-18T05:31:30;12.00;99.90
19952;DHT22;10137;49.406;19.484;2023-09-18T05:33:58;11.90;99.90
19952;DHT22;10137;49.406;19.484;2023-09-18T05:36:26;12.00;99.90
19952;DHT22;10137;49.406;19.484;2023-09-18T05:38:54;12.00;99.90
19952;DHT22;10137;49.406;19.484;2023-09-18T05:41:22;12.00;99.90
19952;DHT22;10137;49.406;19.484;2023-09-18T05:43:53;12.10;99.90
19952;DHT22;10137;49.406;19.484;2023-09-18T05:46:22;12.10;99.90
19952;DHT22;10137;49.406;19.484;2023-09-18T05:48:55;12.10;99.90
19952;DHT22;10137;49.406;19.484;2023-09-18T05:51:25;12.00;99.90
19952;DHT22;10137;49.406;19.484;2023-09-18T05:53:56;12.00;99.90
19952;DHT22;10137;49.406;19.484;2023-09-18T05:56:25;12.00;99.90
19952;DHT22;10137;49.406;19.484;2023-09-18T05:58:57;12.00;99.90
19952;DHT22;10137;49.406;19.484;2023-09-18T06:01:27;12.10;99.90
19952;DHT22;10137;49.406;19.484;2023-09-18T06:04:00;12.20;99.90
19952;DHT22;10137;49.406;19.484;2023-09-18T06:06:31;12.20;99.90
19952;DHT22;10137;49.406;19.484;2023-09-18T06:09:00;12.20;99.90
19952;DHT22;10137;49.406;19.484;2023-09-18T06:11:28;12.30;99.90
19952;DHT22;10137;49.406;19.484;2023-09-18T06:13:57;12.40;99.90
19952;DHT22;10137;49.406;19.484;2023-09-18T06:16:25;12.40;99.90
19952;DHT22;10137;49.406;19.484;2023-09-18T06:18:54;12.50;99.90
19952;DHT22;10137;49.406;19.484;2023-09-18T06:21:28;12.50;99.90
19952;DHT22;10137;49.406;19.484;2023-09-18T06:23:58;12.60;99.90
19952;DHT22;10137;49.406;19.484;2023-09-18T06:26:27;12.70;99.90
19952;DHT22;10137;49.406;19.484;2023-09-18T06:28:54;12.70;99.90
19952;DHT22;10137;49.406;19.484;2023-09-18T06:31:22;12.70;99.90
19952;DHT22;10137;49.406;19.484;2023-09-18T06:33:50;12.80;99.90
19952;DHT22;10137;49.406;19.484;2023-09-18T06:36:19;12.90;99.90
19952;DHT22;10137;49.406;19.484;2023-09-18T06:38:49;12.90;99.90
19952;DHT22;10137;49.406;19.484;2023-09-18T06:41:17;12.90;99.90
19952;DHT22;10137;49.406;19.484;2023-09-18T06:43:45;13.00;99.90
19952;DHT22;10137;49.406;19.484;2023-09-18T06:46:15;13.10;99.90
19952;DHT22;10137;49.406;19.484;2023-09-18T06:48:44;13.20;99.90
19952;DHT22;10137;49.406;19.484;2023-09-18T06:51:15;13.20;99.90
19952;DHT22;10137;49.406;19.484;2023-09-18T06:53:44;13.30;99.90
19952;DHT22;10137;49.406;19.484;2023-09-18T06:56:14;13.30;99.90
19952;DHT22;10137;49.406;19.484;2023-09-18T06:58:44;13.30;99.90
19952;DHT22;10137;49.406;19.484;2023-09-18T07:01:14;13.40;99.90
19952;DHT22;10137;49.406;19.484;2023-09-18T07:03:47;13.50;99.90
19952;DHT22;10137;49.406;19.484;2023-09-18T07:06:17;13.50;99.90
19952;DHT22;10137;49.406;19.484;2023-09-18T07:08:47;13.60;99.90
19952;DHT22;10137;49.406;19.484;2023-09-18T07:11:17;13.70;99.90
19952;DHT22;10137;49.406;19.484;2023-09-18T07:13:45;13.80;99.90
19952;DHT22;10137;49.406;19.484;2023-09-18T07:16:13;13.80;99.90
19952;DHT22;10137;49.406;19.484;2023-09-18T07:18:41;13.80;99.90
19952;DHT22;10137;49.406;19.484;2023-09-18T07:21:10;14.00;99.90
19952;DHT22;10137;49.406;19.484;2023-09-18T07:23:39;14.10;99.90
19952;DHT22;10137;49.406;19.484;2023-09-18T07:26:07;14.20;99.90
19952;DHT22;10137;49.406;19.484;2023-09-18T07:28:37;14.20;99.90
19952;DHT22;10137;49.406;19.484;2023-09-18T07:31:07;14.30;99.90
19952;DHT22;10137;49.406;19.484;2023-09-18T07:33:35;14.50;99.90
19952;DHT22;10137;49.406;19.484;2023-09-18T07:36:04;14.60;99.90
19952;DHT22;10137;49.406;19.484;2023-09-18T07:38:32;14.70;99.90
19952;DHT22;10137;49.406;19.484;2023-09-18T07:41:00;14.70;99.90
19952;DHT22;10137;49.406;19.484;2023-09-18T07:43:31;14.90;99.90
19952;DHT22;10137;49.406;19.484;2023-09-18T07:46:02;15.00;99.90
19952;DHT22;10137;49.406;19.484;2023-09-18T07:48:31;15.20;99.90
19952;DHT22;10137;49.406;19.484;2023-09-18T07:50:59;15.30;99.90
19952;DHT22;10137;49.406;19.484;2023-09-18T07:53:27;15.30;99.90
19952;DHT22;10137;49.406;19.484;2023-09-18T07:55:58;15.50;99.90
19952;DHT22;10137;49.406;19.484;2023-09-18T07:58:28;15.70;99.90
19952;DHT22;10137;49.406;19.484;2023-09-18T08:00:56;16.00;99.90
19952;DHT22;10137;49.406;19.484;2023-09-18T08:03:32;16.40;99.90
19952;DHT22;10137;49.406;19.484;2023-09-18T08:06:01;17.00;99.90
19952;DHT22;10137;49.406;19.484;2023-09-18T08:08:31;17.70;99.90
19952;DHT22;10137;49.406;19.484;2023-09-18T08:11:09;18.00;99.90
19952;DHT22;10137;49.406;19.484;2023-09-18T08:13:39;18.50;99.90
19952;DHT22;10137;49.406;19.484;2023-09-18T08:16:10;18.70;99.90
19952;DHT22;10137;49.406;19.484;2023-09-18T08:18:39;19.00;99.90
19952;DHT22;10137;49.406;19.484;2023-09-18T08:21:08;19.30;99.90
19952;DHT22;10137;49.406;19.484;2023-09-18T08:23:36;19.50;99.90
19952;DHT22;10137;49.406;19.484;2023-09-18T08:26:05;19.70;99.90
19952;DHT22;10137;49.406;19.484;2023-09-18T08:28:34;19.90;99.90
19952;DHT22;10137;49.406;19.484;2023-09-18T08:31:05;20.10;99.90
19952;DHT22;10137;49.406;19.484;2023-09-18T08:33:34;20.20;99.90
19952;DHT22;10137;49.406;19.484;2023-09-18T08:36:04;20.40;99.90
19952;DHT22;10137;49.406;19.484;2023-09-18T08:38:32;20.80;99.90
19952;DHT22;10137;49.406;19.484;2023-09-18T08:41:01;21.00;99.90
19952;DHT22;10137;49.406;19.484;2023-09-18T08:43:31;21.20;99.90
19952;DHT22;10137;49.406;19.484;2023-09-18T08:46:00;21.40;99.90
19952;DHT22;10137;49.406;19.484;2023-09-18T08:48:30;21.80;99.90
19952;DHT22;10137;49.406;19.484;2023-09-18T08:51:05;21.90;99.90
19952;DHT22;10137;49.406;19.484;2023-09-18T08:53:35;22.30;99.90
19952;DHT22;10137;49.406;19.484;2023-09-18T08:56:04;22.60;99.90
19952;DHT22;10137;49.406;19.484;2023-09-18T08:58:34;22.50;99.90
19952;DHT22;10137;49.406;19.484;2023-09-18T09:01:07;22.80;99.90
19952;DHT22;10137;49.406;19.484;2023-09-18T09:03:37;23.50;99.90
19952;DHT22;10137;49.406;19.484;2023-09-18T09:06:12;23.70;99.90
19952;DHT22;10137;49.406;19.484;2023-09-18T09:08:45;23.80;99.90
19952;DHT22;10137;49.406;19.484;2023-09-18T09:11:13;23.90;99.90
19952;DHT22;10137;49.406;19.484;2023-09-18T09:13:42;24.00;99.90
19952;DHT22;10137;49.406;19.484;2023-09-18T09:16:14;24.50;99.90
19952;DHT22;10137;49.406;19.484;2023-09-18T09:18:56;24.60;99.90
19952;DHT22;10137;49.406;19.484;2023-09-18T09:21:42;25.20;99.90
19952;DHT22;10137;49.406;19.484;2023-09-18T09:24:11;25.20;99.90
19952;DHT22;10137;49.406;19.484;2023-09-18T09:26:40;25.50;99.90
19952;DHT22;10137;49.406;19.484;2023-09-18T09:29:22;25.70;99.90
19952;DHT22;10137;49.406;19.484;2023-09-18T09:31:52;25.20;99.30
19952;DHT22;10137;49.406;19.484;2023-09-18T09:34:26;25.30;99.90
19952;DHT22;10137;49.406;19.484;2023-09-18T09:36:59;25.60;99.80
19952;DHT22;10137;49.406;19.484;2023-09-18T09:39:30;25.40;97.80
19952;DHT22;10137;49.406;19.484;2023-09-18T09:42:00;25.20;97.90
19952;DHT22;10137;49.406;19.484;2023-09-18T09:44:31;25.40;98.10
19952;DHT22;10137;49.406;19.484;2023-09-18T09:46:59;25.80;97.40
19952;DHT22;10137;49.406;19.484;2023-09-18T09:49:45;25.50;98.70
19952;DHT22;10137;49.406;19.484;2023-09-18T09:52:19;25.80;98.40
19952;DHT22;10137;49.406;19.484;2023-09-18T09:54:51;25.40;98.40
19952;DHT22;10137;49.406;19.484;2023-09-18T09:57:21;25.20;99.20
19952;DHT22;10137;49.406;19.484;2023-09-18T09:59:49;25.10;97.60
19952;DHT22;10137;49.406;19.484;2023-09-18T10:02:18;24.80;98.60
19952;DHT22;10137;49.406;19.484;2023-09-18T10:04:50;24.70;99.90
19952;DHT22;10137;49.406;19.484;2023-09-18T10:07:25;24.50;99.90
19952;DHT22;10137;49.406;19.484;2023-09-18T10:09:55;24.60;99.90
19952;DHT22;10137;49.406;19.484;2023-09-18T10:12:26;24.80;99.90
19952;DHT22;10137;49.406;19.484;2023-09-18T10:14:56;24.80;99.90
19952;DHT22;10137;49.406;19.484;2023-09-18T10:17:25;24.70;99.90
19952;DHT22;10137;49.406;19.484;2023-09-18T10:20:02;25.10;99.90
19952;DHT22;10137;49.406;19.484;2023-09-18T10:22:49;25.00;98.50
19952;DHT22;10137;49.406;19.484;2023-09-18T10:25:24;25.00;99.50
19952;DHT22;10137;49.406;19.484;2023-09-18T10:27:52;25.30;98.90
19952;DHT22;10137;49.406;19.484;2023-09-18T10:30:26;24.70;99.20
19952;DHT22;10137;49.406;19.484;2023-09-18T10:32:56;24.60;99.30
19952;DHT22;10137;49.406;19.484;2023-09-18T10:35:24;24.90;99.60
19952;DHT22;10137;49.406;19.484;2023-09-18T10:38:00;25.10;97.30
19952;DHT22;10137;49.406;19.484;2023-09-18T10:40:31;25.50;97.10
19952;DHT22;10137;49.406;19.484;2023-09-18T10:43:03;25.80;96.40
19952;DHT22;10137;49.406;19.484;2023-09-18T10:45:36;25.80;96.70
19952;DHT22;10137;49.406;19.484;2023-09-18T10:48:08;25.90;94.30
19952;DHT22;10137;49.406;19.484;2023-09-18T10:50:36;25.80;95.70
19952;DHT22;10137;49.406;19.484;2023-09-18T10:53:08;26.10;95.70
19952;DHT22;10137;49.406;19.484;2023-09-18T10:55:40;26.00;94.10
19952;DHT22;10137;49.406;19.484;2023-09-18T10:58:11;26.00;94.20
19952;DHT22;10137;49.406;19.484;2023-09-18T11:00:41;25.90;93.00
19952;DHT22;10137;49.406;19.484;2023-09-18T11:03:14;25.40;93.20
19952;DHT22;10137;49.406;19.484;2023-09-18T11:05:44;25.40;93.90
19952;DHT22;10137;49.406;19.484;2023-09-18T11:08:28;25.10;93.70
19952;DHT22;10137;49.406;19.484;2023-09-18T11:11:02;25.00;94.30
19952;DHT22;10137;49.406;19.484;2023-09-18T11:13:39;25.10;94.50
19952;DHT22;10137;49.406;19.484;2023-09-18T11:16:32;25.20;95.60
19952;DHT22;10137;49.406;19.484;2023-09-18T11:19:12;25.30;96.50
19952;DHT22;10137;49.406;19.484;2023-09-18T11:21:44;25.40;95.80
19952;DHT22;10137;49.406;19.484;2023-09-18T11:24:21;25.50;95.20
19952;DHT22;10137;49.406;19.484;2023-09-18T11:26:53;25.20;94.50
19952;DHT22;10137;49.406;19.484;2023-09-18T11:29:23;25.20;96.00
19952;DHT22;10137;49.406;19.484;2023-09-18T11:31:55;25.30;96.40
19952;DHT22;10137;49.406;19.484;2023-09-18T11:34:26;25.40;95.40
19952;DHT22;10137;49.406;19.484;2023-09-18T11:36:56;25.10;94.60
19952;DHT22;10137;49.406;19.484;2023-09-18T11:39:36;25.00;94.70
19952;DHT22;10137;49.406;19.484;2023-09-18T11:42:09;24.90;95.10
19952;DHT22;10137;49.406;19.484;2023-09-18T11:44:38;24.90;96.30
19952;DHT22;10137;49.406;19.484;2023-09-18T11:47:15;24.90;95.40
19952;DHT22;10137;49.406;19.484;2023-09-18T11:49:49;24.60;95.00
19952;DHT22;10137;49.406;19.484;2023-09-18T11:52:23;24.50;95.90
19952;DHT22;10137;49.406;19.484;2023-09-18T11:54:56;24.40;95.00
19952;DHT22;10137;49.406;19.484;2023-09-18T11:57:25;24.20;95.10
19952;DHT22;10137;49.406;19.484;2023-09-18T11:59:55;24.20;96.40
19952;DHT22;10137;49.406;19.484;2023-09-18T12:02:27;24.10;96.10
19952;DHT22;10137;49.406;19.484;2023-09-18T12:05:10;24.00;95.90
19952;DHT22;10137;49.406;19.484;2023-09-18T12:07:40;23.80;96.20
19952;DHT22;10137;49.406;19.484;2023-09-18T12:10:20;23.70;96.70
19952;DHT22;10137;49.406;19.484;2023-09-18T12:12:51;23.70;96.70
19952;DHT22;10137;49.406;19.484;2023-09-18T12:15:19;23.60;96.60
19952;DHT22;10137;49.406;19.484;2023-09-18T12:17:47;23.60;96.70
19952;DHT22;10137;49.406;19.484;2023-09-18T12:20:16;23.70;96.70
19952;DHT22;10137;49.406;19.484;2023-09-18T12:22:50;23.70;96.40
19952;DHT22;10137;49.406;19.484;2023-09-18T12:25:26;24.00;97.20
19952;DHT22;10137;49.406;19.484;2023-09-18T12:27:54;24.10;97.00
19952;DHT22;10137;49.406;19.484;2023-09-18T12:30:23;24.20;96.40
19952;DHT22;10137;49.406;19.484;2023-09-18T12:32:53;24.20;95.50
19952;DHT22;10137;49.406;19.484;2023-09-18T12:35:26;24.10;95.30
19952;DHT22;10137;49.406;19.484;2023-09-18T12:37:57;24.10;95.90
19952;DHT22;10137;49.406;19.484;2023-09-18T12:40:29;23.80;95.90
19952;DHT22;10137;49.406;19.484;2023-09-18T12:42:59;23.70;95.60
19952;DHT22;10137;49.406;19.484;2023-09-18T12:45:29;23.70;95.60
19952;DHT22;10137;49.406;19.484;2023-09-18T12:47:57;23.70;96.60
19952;DHT22;10137;49.406;19.484;2023-09-18T12:50:25;23.70;95.60
19952;DHT22;10137;49.406;19.484;2023-09-18T12:53:10;23.60;95.40
19952;DHT22;10137;49.406;19.484;2023-09-18T12:55:41;23.60;95.90
19952;DHT22;10137;49.406;19.484;2023-09-18T12:58:11;23.70;96.30
19952;DHT22;10137;49.406;19.484;2023-09-18T13:00:45;23.70;94.50
19952;DHT22;10137;49.406;19.484;2023-09-18T13:03:13;23.90;96.10
19952;DHT22;10137;49.406;19.484;2023-09-18T13:05:42;23.90;94.70
19952;DHT22;10137;49.406;19.484;2023-09-18T13:08:10;24.00;94.50
19952;DHT22;10137;49.406;19.484;2023-09-18T13:10:47;24.00;94.30
19952;DHT22;10137;49.406;19.484;2023-09-18T13:13:20;24.10;94.00
19952;DHT22;10137;49.406;19.484;2023-09-18T13:15:49;24.10;93.60
19952;DHT22;10137;49.406;19.484;2023-09-18T13:18:17;24.10;92.60
19952;DHT22;10137;49.406;19.484;2023-09-18T13:20:46;24.10;93.00
19952;DHT22;10137;49.406;19.484;2023-09-18T13:23:14;24.10;93.70
19952;DHT22;10137;49.406;19.484;2023-09-18T13:25:42;24.10;92.50
19952;DHT22;10137;49.406;19.484;2023-09-18T13:28:14;24.10;92.90
19952;DHT22;10137;49.406;19.484;2023-09-18T13:30:42;24.10;92.80
19952;DHT22;10137;49.406;19.484;2023-09-18T13:33:12;24.10;92.70
19952;DHT22;10137;49.406;19.484;2023-09-18T13:35:41;24.00;92.30
19952;DHT22;10137;49.406;19.484;2023-09-18T13:38:11;24.00;92.80
19952;DHT22;10137;49.406;19.484;2023-09-18T13:40:41;23.90;91.60
19952;DHT22;10137;49.406;19.484;2023-09-18T13:43:10;24.00;92.40
19952;DHT22;10137;49.406;19.484;2023-09-18T13:45:53;24.00;92.40
19952;DHT22;10137;49.406;19.484;2023-09-18T13:48:21;23.90;92.10
19952;DHT22;10137;49.406;19.484;2023-09-18T13:50:50;23.90;92.40
19952;DHT22;10137;49.406;19.484;2023-09-18T13:53:19;23.90;91.90
19952;DHT22;10137;49.406;19.484;2023-09-18T13:55:49;23.80;92.50
19952;DHT22;10137;49.406;19.484;2023-09-18T13:58:17;23.80;93.40
19952;DHT22;10137;49.406;19.484;2023-09-18T14:00:49;23.90;93.10
19952;DHT22;10137;49.406;19.484;2023-09-18T14:03:19;23.80;92.60
19952;DHT22;10137;49.406;19.484;2023-09-18T14:05:48;23.70;93.20
19952;DHT22;10137;49.406;19.484;2023-09-18T14:08:16;23.80;93.90
19952;DHT22;10137;49.406;19.484;2023-09-18T14:10:47;23.80;92.70
19952;DHT22;10137;49.406;19.484;2023-09-18T14:13:15;23.70;93.40
19952;DHT22;10137;49.406;19.484;2023-09-18T14:15:44;23.70;93.50
19952;DHT22;10137;49.406;19.484;2023-09-18T14:18:17;23.60;93.40
19952;DHT22;10137;49.406;19.484;2023-09-18T14:20:48;23.70;93.60
19952;DHT22;10137;49.406;19.484;2023-09-18T14:23:19;23.70;93.50
19952;DHT22;10137;49.406;19.484;2023-09-18T14:25:51;23.60;92.80
19952;DHT22;10137;49.406;19.484;2023-09-18T14:28:19;23.50;93.00
19952;DHT22;10137;49.406;19.484;2023-09-18T14:30:48;23.50;93.20
19952;DHT22;10137;49.406;19.484;2023-09-18T14:33:22;23.40;93.00
19952;DHT22;10137;49.406;19.484;2023-09-18T14:35:50;23.30;92.70
19952;DHT22;10137;49.406;19.484;2023-09-18T14:38:21;23.20;92.90
19952;DHT22;10137;49.406;19.484;2023-09-18T14:40:52;23.10;93.30
19952;DHT22;10137;49.406;19.484;2023-09-18T14:43:27;23.10;93.40
19952;DHT22;10137;49.406;19.484;2023-09-18T14:45:55;23.10;93.90
19952;DHT22;10137;49.406;19.484;2023-09-18T14:48:26;23.10;94.80
19952;DHT22;10137;49.406;19.484;2023-09-18T14:50:56;23.10;95.20
19952;DHT22;10137;49.406;19.484;2023-09-18T14:53:25;23.10;95.00
19952;DHT22;10137;49.406;19.484;2023-09-18T14:55:54;23.00;95.00
19952;DHT22;10137;49.406;19.484;2023-09-18T14:58:23;22.90;95.00
19952;DHT22;10137;49.406;19.484;2023-09-18T15:00:52;22.90;95.00
19952;DHT22;10137;49.406;19.484;2023-09-18T15:03:20;23.00;95.20
19952;DHT22;10137;49.406;19.484;2023-09-18T15:05:52;22.90;95.40
19952;DHT22;10137;49.406;19.484;2023-09-18T15:08:23;22.90;95.40
19952;DHT22;10137;49.406;19.484;2023-09-18T15:10:52;22.90;96.10
19952;DHT22;10137;49.406;19.484;2023-09-18T15:13:19;22.80;95.50
19952;DHT22;10137;49.406;19.484;2023-09-18T15:15:51;22.80;95.70
19952;DHT22;10137;49.406;19.484;2023-09-18T15:18:18;22.70;95.70
19952;DHT22;10137;49.406;19.484;2023-09-18T15:20:46;22.70;95.80
19952;DHT22;10137;49.406;19.484;2023-09-18T15:23:22;22.60;95.90
19952;DHT22;10137;49.406;19.484;2023-09-18T15:25:51;22.50;96.30
19952;DHT22;10137;49.406;19.484;2023-09-18T15:28:20;22.50;96.70
19952;DHT22;10137;49.406;19.484;2023-09-18T15:30:52;22.40;97.00
19952;DHT22;10137;49.406;19.484;2023-09-18T15:33:19;22.40;97.30